Time;durP1;ratioP1;P1;durP2;ratioP2;P2;SDS_P1;SDS_P2;PMS_P1;PMS_P2;Temp;Humidity;BMP_temperature;BMP_pressure;BME280_temperature;BME280_humidity;BME280_pressure;Samples;Min_cycle;Max_cycle;Signal;HPM_P1;HPM_P2
2021/10/31 00:00:52;;;;;;;26.50;15.82;;;10.90;99.90;;;;;;5009135;28;20030;-60
2021/10/31 00:03:18;;;;;;;25.25;15.27;;;11.10;99.90;;;;;;5005843;28;20034;-60
2021/10/31 00:05:43;;;;;;;29.65;15.73;;;10.90;99.90;;;;;;5010096;28;20040;-60
2021/10/31 00:08:09;;;;;;;26.67;15.82;;;11.00;99.90;;;;;;5014433;28;20033;-60
2021/10/31 00:10:35;;;;;;;26.92;15.15;;;11.10;99.90;;;;;;5021125;28;20025;-60
2021/10/31 00:13:00;;;;;;;27.88;16.63;;;11.10;99.90;;;;;;5021891;28;20030;-60
2021/10/31 00:15:26;;;;;;;26.00;15.60;;;11.10;99.90;;;;;;5016996;28;20531;-60
2021/10/31 00:17:51;;;;;;;31.33;16.75;;;11.20;99.90;;;;;;5011109;28;20085;-60
2021/10/31 00:20:17;;;;;;;25.38;15.20;;;11.20;99.90;;;;;;5005719;28;20034;-61
2021/10/31 00:22:44;;;;;;;29.67;16.50;;;11.20;99.90;;;;;;5007587;28;20034;-61
2021/10/31 00:25:10;;;;;;;25.05;14.80;;;11.20;99.90;;;;;;5012778;28;20133;-60
2021/10/31 00:27:35;;;;;;;26.98;15.70;;;11.20;99.90;;;;;;5018481;28;20652;-60
2021/10/31 00:30:01;;;;;;;24.45;15.05;;;11.20;99.90;;;;;;5023821;28;20030;-61
2021/10/31 00:32:26;;;;;;;28.65;15.85;;;11.20;99.90;;;;;;5018460;28;20405;-60
2021/10/31 00:34:52;;;;;;;25.67;15.02;;;11.20;99.90;;;;;;5014738;28;20037;-60
2021/10/31 00:37:17;;;;;;;24.27;15.15;;;11.30;99.90;;;;;;5007510;28;20034;-60
2021/10/31 00:39:43;;;;;;;25.23;14.73;;;11.30;99.90;;;;;;5003951;28;20034;-61
2021/10/31 00:42:08;;;;;;;26.05;15.50;;;11.30;99.90;;;;;;5008112;28;20145;-61
2021/10/31 00:44:34;;;;;;;26.45;14.95;;;11.40;99.90;;;;;;5012604;28;20048;-61
2021/10/31 00:46:59;;;;;;;28.05;15.15;;;11.40;99.90;;;;;;5018503;28;20111;-61
2021/10/31 00:49:25;;;;;;;24.38;14.52;;;11.50;99.90;;;;;;5019288;28;20038;-61
2021/10/31 00:51:51;;;;;;;27.27;15.65;;;11.50;99.90;;;;;;5017016;28;20034;-60
2021/10/31 00:54:16;;;;;;;30.52;15.15;;;11.50;99.90;;;;;;5010526;28;20045;-61
2021/10/31 00:56:41;;;;;;;24.85;14.80;;;11.60;99.90;;;;;;5006036;28;20048;-61
2021/10/31 00:59:07;;;;;;;23.58;14.95;;;11.60;99.90;;;;;;5005648;28;20022;-60
2021/10/31 01:01:33;;;;;;;25.08;15.43;;;11.60;99.90;;;;;;5010634;28;20026;-61
2021/10/31 01:03:58;;;;;;;25.25;14.02;;;11.60;99.90;;;;;;5017212;28;20045;-61
2021/10/31 01:06:24;;;;;;;25.08;15.70;;;11.70;99.90;;;;;;5020806;28;20561;-61
2021/10/31 01:08:49;;;;;;;25.52;14.07;;;10.70;99.90;;;;;;5018647;28;20040;-61
2021/10/31 01:11:15;;;;;;;28.08;15.13;;;11.70;99.90;;;;;;5014321;28;20025;-61
2021/10/31 01:13:40;;;;;;;24.80;14.30;;;11.60;99.90;;;;;;5008805;28;20044;-60
2021/10/31 01:16:06;;;;;;;34.38;16.38;;;11.60;99.90;;;;;;5002738;28;20534;-61
2021/10/31 01:18:31;;;;;;;25.48;14.15;;;11.40;99.90;;;;;;5007338;28;20033;-60
2021/10/31 01:20:57;;;;;;;24.13;14.35;;;11.70;99.90;;;;;;5013327;28;20448;-60
2021/10/31 01:23:23;;;;;;;25.95;14.90;;;11.70;99.90;;;;;;5018949;28;20025;-61
2021/10/31 01:25:49;;;;;;;23.50;14.85;;;11.60;99.90;;;;;;5020487;28;20762;-61
2021/10/31 01:28:15;;;;;;;25.77;14.18;;;11.60;99.90;;;;;;5016998;28;20039;-61
2021/10/31 01:30:40;;;;;;;25.92;15.02;;;11.60;99.90;;;;;;5013465;28;20517;-61
2021/10/31 01:33:05;;;;;;;23.08;14.10;;;11.50;99.90;;;;;;5020022;28;20025;-60
2021/10/31 01:35:31;;;;;;;26.48;15.15;;;11.50;99.90;;;;;;5020042;28;20655;-61
2021/10/31 01:37:57;;;;;;;26.02;14.82;;;12.00;99.90;;;;;;5008986;28;20033;-60
2021/10/31 01:40:22;;;;;;;22.92;14.05;;;11.40;99.90;;;;;;5014308;28;20025;-61
2021/10/31 01:42:47;;;;;;;24.88;14.52;;;11.30;99.90;;;;;;5018702;28;20049;-61
2021/10/31 01:45:13;;;;;;;24.65;14.20;;;11.30;99.90;;;;;;5016869;28;20033;-61
2021/10/31 01:47:38;;;;;;;26.58;14.88;;;11.20;99.90;;;;;;5010067;28;20041;-61
2021/10/31 01:50:04;;;;;;;21.50;13.40;;;11.20;99.90;;;;;;5006681;28;20041;-61
2021/10/31 01:52:29;;;;;;;24.80;13.88;;;11.10;99.90;;;;;;5001084;28;20037;-62
2021/10/31 01:54:55;;;;;;;24.27;14.40;;;11.00;99.90;;;;;;5006671;28;20061;-61
2021/10/31 01:57:21;;;;;;;23.83;14.68;;;10.90;99.90;;;;;;5008811;28;20049;-61
2021/10/31 01:59:47;;;;;;;27.23;15.05;;;11.00;99.90;;;;;;5014474;28;20029;-61
2021/10/31 02:02:13;;;;;;;24.60;14.38;;;10.90;99.90;;;;;;5019083;28;20037;-61
2021/10/31 02:04:38;;;;;;;22.35;13.07;;;10.80;99.90;;;;;;5013996;28;20133;-61
2021/10/31 02:07:03;;;;;;;23.27;13.77;;;10.80;99.90;;;;;;5007292;28;20088;-62
2021/10/31 02:09:29;;;;;;;26.13;13.43;;;10.80;99.90;;;;;;5003114;28;20041;-61
2021/10/31 02:11:54;;;;;;;28.17;14.98;;;10.80;99.90;;;;;;5001639;28;20484;-61
2021/10/31 02:14:20;;;;;;;20.95;13.52;;;10.70;99.90;;;;;;5005860;28;20041;-61
2021/10/31 02:16:45;;;;;;;23.92;14.45;;;10.70;99.90;;;;;;5010085;28;20647;-61
2021/10/31 02:19:11;;;;;;;25.17;13.95;;;10.60;99.90;;;;;;5003481;28;20037;-61
2021/10/31 02:21:37;;;;;;;25.20;14.50;;;10.60;99.90;;;;;;5001450;28;20291;-61
2021/10/31 02:24:02;;;;;;;23.75;14.02;;;10.60;99.90;;;;;;5010524;28;20034;-61
2021/10/31 02:26:28;;;;;;;24.00;14.40;;;10.50;99.90;;;;;;5013667;28;20041;-61
2021/10/31 02:28:53;;;;;;;23.75;14.00;;;10.60;99.90;;;;;;5015489;28;20768;-63
2021/10/31 02:31:19;;;;;;;24.17;14.88;;;10.60;99.90;;;;;;5017280;28;20040;-63
2021/10/31 02:33:44;;;;;;;22.33;13.38;;;10.60;99.90;;;;;;5014738;28;20837;-63
2021/10/31 02:36:10;;;;;;;23.95;14.85;;;10.50;99.90;;;;;;5007973;28;20041;-63
2021/10/31 02:38:35;;;;;;;23.63;14.10;;;10.50;99.90;;;;;;5001698;28;20025;-63
2021/10/31 02:41:01;;;;;;;34.00;19.10;;;10.50;99.90;;;;;;5005443;28;20041;-64
2021/10/31 02:43:26;;;;;;;25.58;14.80;;;10.50;99.90;;;;;;5010489;28;20036;-63
2021/10/31 02:45:52;;;;;;;22.52;14.32;;;10.50;99.90;;;;;;5005301;28;20037;-63
2021/10/31 02:48:18;;;;;;;21.73;13.23;;;10.50;99.90;;;;;;5003547;28;20095;-63
2021/10/31 02:50:43;;;;;;;25.30;15.05;;;10.50;99.90;;;;;;5007912;28;20025;-64
2021/10/31 02:53:08;;;;;;;22.83;13.30;;;10.40;99.90;;;;;;5012905;28;20069;-63
2021/10/31 02:55:34;;;;;;;25.95;14.75;;;10.40;99.90;;;;;;5018324;28;20642;-61
2021/10/31 02:57:59;;;;;;;23.65;13.27;;;10.30;99.90;;;;;;5016066;28;20041;-61
2021/10/31 03:00:25;;;;;;;22.77;13.35;;;10.30;99.90;;;;;;5009762;28;20030;-61
2021/10/31 03:02:50;;;;;;;25.67;14.10;;;10.20;99.90;;;;;;5005427;28;20034;-61
2021/10/31 03:05:16;;;;;;;23.25;13.52;;;10.30;99.90;;;;;;4999780;28;20030;-61
2021/10/31 03:07:41;;;;;;;21.17;12.55;;;10.40;99.90;;;;;;5003123;28;20087;-61
2021/10/31 03:10:07;;;;;;;20.55;12.95;;;10.50;99.90;;;;;;5008951;28;20078;-61
2021/10/31 03:12:32;;;;;;;19.27;12.45;;;10.60;99.90;;;;;;5013338;28;20445;-62
2021/10/31 03:14:58;;;;;;;19.15;12.70;;;10.60;99.90;;;;;;5018256;28;20037;-61
2021/10/31 03:17:23;;;;;;;23.02;13.45;;;10.70;99.90;;;;;;5014067;28;20033;-61
2021/10/31 03:19:49;;;;;;;23.25;13.80;;;10.80;99.90;;;;;;5010286;28;21053;-62
2021/10/31 03:22:15;;;;;;;23.10;12.93;;;10.80;99.90;;;;;;4985670;28;20037;-61
2021/10/31 03:24:40;;;;;;;18.80;11.90;;;10.80;99.90;;;;;;5000249;28;20037;-61
2021/10/31 03:27:05;;;;;;;21.10;13.35;;;10.80;99.90;;;;;;5006245;28;20692;-61
2021/10/31 03:29:31;;;;;;;19.70;11.85;;;10.80;99.90;;;;;;5011358;28;20041;-61
2021/10/31 03:31:56;;;;;;;21.27;12.20;;;10.80;99.90;;;;;;5015576;28;20056;-61
2021/10/31 03:34:22;;;;;;;22.13;13.02;;;10.90;99.90;;;;;;5018195;28;20030;-61
2021/10/31 03:36:47;;;;;;;18.27;11.88;;;10.80;99.90;;;;;;5011019;28;20570;-62
2021/10/31 03:39:13;;;;;;;20.55;12.10;;;10.80;99.90;;;;;;5011182;28;20025;-61
2021/10/31 03:41:38;;;;;;;19.95;11.98;;;10.80;99.90;;;;;;5006141;28;20069;-62
2021/10/31 03:44:04;;;;;;;19.55;12.40;;;10.80;99.90;;;;;;5006446;28;20136;-61
2021/10/31 03:46:29;;;;;;;22.88;13.07;;;10.90;99.90;;;;;;5012104;28;20068;-61
2021/10/31 03:48:55;;;;;;;20.45;12.75;;;10.90;99.90;;;;;;5017370;28;20804;-61
2021/10/31 03:51:21;;;;;;;18.77;11.75;;;10.90;99.90;;;;;;5019472;28;20065;-61
2021/10/31 03:53:46;;;;;;;18.88;12.40;;;10.90;99.90;;;;;;5017695;28;20117;-61
2021/10/31 03:56:12;;;;;;;21.05;12.23;;;10.90;99.90;;;;;;5014071;28;20486;-61
2021/10/31 03:58:37;;;;;;;19.38;11.93;;;10.90;99.90;;;;;;5008069;28;20036;-61
2021/10/31 04:01:03;;;;;;;18.45;11.23;;;10.90;99.90;;;;;;5005111;28;20097;-61
2021/10/31 04:03:28;;;;;;;21.73;11.85;;;10.90;99.90;;;;;;5009035;28;20042;-61
2021/10/31 04:05:54;;;;;;;20.10;12.05;;;10.90;99.90;;;;;;5012777;28;20149;-61
2021/10/31 04:08:19;;;;;;;21.00;12.25;;;10.90;99.90;;;;;;5019326;28;20079;-61
2021/10/31 04:10:45;;;;;;;19.42;11.77;;;10.90;99.90;;;;;;5020640;28;20156;-61
2021/10/31 04:13:10;;;;;;;20.17;12.32;;;10.90;99.90;;;;;;5015843;28;20141;-61
2021/10/31 04:15:36;;;;;;;19.95;12.38;;;10.90;99.90;;;;;;5010457;28;20168;-61
2021/10/31 04:18:01;;;;;;;22.85;10.95;;;10.90;99.90;;;;;;5004602;28;20041;-61
2021/10/31 04:20:26;;;;;;;19.85;11.88;;;11.00;99.90;;;;;;5005693;28;20088;-61
2021/10/31 04:22:52;;;;;;;20.27;11.55;;;10.90;99.90;;;;;;5011451;28;20978;-64
2021/10/31 04:25:17;;;;;;;19.65;11.60;;;10.90;99.90;;;;;;5016445;28;20022;-64
2021/10/31 04:27:43;;;;;;;18.02;11.23;;;10.90;99.90;;;;;;5020208;28;20573;-63
2021/10/31 04:30:08;;;;;;;20.17;11.52;;;11.00;99.90;;;;;;5018859;28;20034;-63
2021/10/31 04:32:34;;;;;;;18.20;11.40;;;11.10;99.90;;;;;;5013577;28;20508;-61
2021/10/31 04:34:59;;;;;;;20.63;12.10;;;11.10;99.90;;;;;;5009410;28;20375;-62
2021/10/31 04:37:26;;;;;;;19.83;11.40;;;11.20;99.90;;;;;;5005669;28;20048;-62
2021/10/31 04:39:51;;;;;;;19.52;11.18;;;11.30;99.90;;;;;;5010591;28;20104;-62
2021/10/31 04:42:17;;;;;;;16.65;10.45;;;11.30;99.90;;;;;;5012251;28;20033;-62
2021/10/31 04:44:42;;;;;;;17.73;11.38;;;11.40;99.90;;;;;;5016140;28;20026;-62
2021/10/31 04:47:08;;;;;;;18.33;10.93;;;11.40;99.90;;;;;;5019774;28;20123;-61
2021/10/31 04:49:33;;;;;;;17.88;10.90;;;11.50;99.90;;;;;;5015101;28;20505;-61
2021/10/31 04:51:59;;;;;;;16.70;10.50;;;11.50;99.90;;;;;;5010647;28;20038;-61
2021/10/31 04:54:25;;;;;;;18.70;11.15;;;11.50;99.90;;;;;;5005261;28;20033;-62
2021/10/31 04:56:50;;;;;;;19.20;11.20;;;11.50;99.90;;;;;;5004332;28;20038;-62
2021/10/31 04:59:16;;;;;;;17.02;10.18;;;11.50;99.90;;;;;;5009574;28;20123;-62
2021/10/31 05:01:41;;;;;;;18.23;10.70;;;11.60;99.90;;;;;;5015377;28;20030;-62
2021/10/31 05:04:07;;;;;;;18.02;10.63;;;11.60;99.90;;;;;;5019983;28;20140;-62
2021/10/31 05:06:32;;;;;;;17.75;10.52;;;11.50;99.90;;;;;;5020182;28;20037;-61
2021/10/31 05:08:58;;;;;;;17.75;11.45;;;11.50;99.90;;;;;;5012531;28;20045;-62
2021/10/31 05:11:23;;;;;;;15.65;10.23;;;11.50;99.90;;;;;;5008755;28;20038;-61
2021/10/31 05:13:49;;;;;;;16.60;11.15;;;11.50;99.90;;;;;;5002684;28;20515;-61
2021/10/31 05:16:14;;;;;;;21.35;10.35;;;11.50;99.90;;;;;;5007378;28;20048;-61
2021/10/31 05:18:40;;;;;;;20.98;10.40;;;11.50;99.90;;;;;;5010707;28;20041;-61
2021/10/31 05:21:05;;;;;;;17.00;10.13;;;11.40;99.90;;;;;;5016488;28;20029;-61
2021/10/31 05:23:31;;;;;;;18.73;10.95;;;11.40;99.90;;;;;;5021570;28;20025;-61
2021/10/31 05:25:56;;;;;;;17.10;10.25;;;11.30;99.90;;;;;;5016832;28;20118;-61
2021/10/31 05:28:22;;;;;;;16.52;10.07;;;11.30;99.90;;;;;;5009731;28;20136;-61
2021/10/31 05:30:47;;;;;;;19.33;10.40;;;11.30;99.90;;;;;;5004931;28;20034;-61
2021/10/31 05:33:13;;;;;;;16.83;10.73;;;11.30;99.90;;;;;;5003836;28;20544;-62
2021/10/31 05:35:38;;;;;;;17.63;11.13;;;11.20;99.90;;;;;;5008973;28;20045;-61
2021/10/31 05:38:05;;;;;;;16.05;9.90;;;11.20;99.90;;;;;;5013510;28;20044;-61
2021/10/31 05:40:30;;;;;;;19.58;11.05;;;11.20;99.90;;;;;;5019362;28;20034;-61
2021/10/31 05:42:56;;;;;;;17.15;10.55;;;11.10;99.90;;;;;;5016577;28;20035;-62
2021/10/31 05:45:22;;;;;;;19.80;10.40;;;11.10;99.90;;;;;;5012752;28;20633;-62
2021/10/31 05:47:47;;;;;;;17.77;10.32;;;11.10;99.90;;;;;;5008306;28;20026;-61
2021/10/31 05:50:13;;;;;;;18.58;11.02;;;11.10;99.90;;;;;;5003463;28;20042;-61
2021/10/31 05:52:38;;;;;;;17.63;11.27;;;11.10;99.90;;;;;;5006389;28;20120;-61
2021/10/31 05:55:04;;;;;;;19.73;11.30;;;11.20;99.90;;;;;;5011222;28;20516;-62
2021/10/31 05:57:29;;;;;;;19.08;11.00;;;11.10;99.90;;;;;;5016506;28;20719;-61
2021/10/31 05:59:55;;;;;;;18.63;10.43;;;11.10;99.90;;;;;;5017711;28;20038;-61
2021/10/31 06:02:20;;;;;;;17.48;10.05;;;11.00;99.90;;;;;;5008943;28;20456;-61
2021/10/31 06:04:46;;;;;;;18.77;10.80;;;10.90;99.90;;;;;;5011013;28;20057;-61
2021/10/31 06:07:12;;;;;;;18.70;11.55;;;10.90;99.90;;;;;;5012227;28;20049;-61
2021/10/31 06:09:37;;;;;;;19.65;11.05;;;10.90;99.90;;;;;;5016626;28;20076;-61
2021/10/31 06:12:03;;;;;;;17.42;10.90;;;10.90;99.90;;;;;;5008094;28;20459;-61
2021/10/31 06:14:28;;;;;;;17.52;10.88;;;11.40;99.90;;;;;;5009712;28;20038;-62
2021/10/31 06:16:54;;;;;;;18.83;10.90;;;10.90;99.90;;;;;;5004685;28;20398;-62
2021/10/31 06:19:19;;;;;;;18.83;11.52;;;10.90;99.90;;;;;;5002438;28;20024;-61
2021/10/31 06:21:45;;;;;;;19.02;11.45;;;11.00;99.90;;;;;;5012562;28;20069;-62
2021/10/31 06:24:10;;;;;;;20.60;12.23;;;11.00;99.90;;;;;;5006185;28;20496;-62
2021/10/31 06:26:36;;;;;;;20.33;11.65;;;10.90;99.90;;;;;;5016388;28;20044;-61
2021/10/31 06:29:01;;;;;;;20.77;11.13;;;11.00;99.90;;;;;;5010154;28;20044;-61
2021/10/31 06:31:27;;;;;;;18.73;11.10;;;11.00;99.90;;;;;;5013390;28;20619;-61
2021/10/31 06:33:52;;;;;;;19.23;11.57;;;11.10;99.90;;;;;;5014660;28;20039;-62
2021/10/31 06:36:18;;;;;;;17.75;10.27;;;11.20;99.90;;;;;;5012850;28;20456;-61
2021/10/31 06:38:43;;;;;;;16.33;10.63;;;11.20;99.90;;;;;;5012077;28;20057;-62
2021/10/31 06:41:09;;;;;;;23.45;11.40;;;11.30;99.90;;;;;;5012165;28;20042;-62
2021/10/31 06:43:35;;;;;;;20.45;11.10;;;11.30;99.90;;;;;;5008518;28;20034;-62
2021/10/31 06:46:00;;;;;;;19.65;10.52;;;11.30;99.90;;;;;;5008714;28;20034;-62
2021/10/31 06:48:26;;;;;;;18.70;10.70;;;11.30;99.90;;;;;;5011013;28;20437;-62
2021/10/31 06:50:53;;;;;;;17.05;10.27;;;11.40;99.90;;;;;;5008249;28;20034;-62
2021/10/31 06:53:19;;;;;;;16.48;10.23;;;11.50;99.90;;;;;;5008245;28;20088;-61
2021/10/31 06:55:45;;;;;;;15.93;10.15;;;11.60;99.90;;;;;;5011082;28;20033;-62
2021/10/31 06:58:10;;;;;;;20.77;11.40;;;11.70;99.90;;;;;;5011435;28;20037;-61
2021/10/31 07:00:36;;;;;;;16.48;10.38;;;11.70;99.90;;;;;;5008618;28;20033;-62
2021/10/31 07:03:01;;;;;;;15.48;10.32;;;11.80;99.90;;;;;;5010050;28;20034;-62
2021/10/31 07:05:27;;;;;;;19.30;10.00;;;12.10;99.90;;;;;;5012689;28;20100;-62
2021/10/31 07:07:52;;;;;;;16.85;9.65;;;12.00;99.90;;;;;;5008578;28;20080;-62
2021/10/31 07:10:18;;;;;;;17.95;9.85;;;12.10;99.90;;;;;;5005526;28;20092;-65
2021/10/31 07:12:43;;;;;;;20.77;10.10;;;12.30;99.90;;;;;;5013716;28;20037;-66
2021/10/31 07:15:09;;;;;;;15.50;9.77;;;12.60;99.90;;;;;;5020086;28;20410;-64
2021/10/31 07:17:34;;;;;;;15.18;9.73;;;12.20;99.90;;;;;;5010777;28;20041;-61
2021/10/31 07:20:00;;;;;;;16.65;10.00;;;12.70;99.90;;;;;;5008645;28;20030;-62
2021/10/31 07:22:25;;;;;;;17.55;9.27;;;12.90;99.90;;;;;;5005501;28;20034;-62
2021/10/31 07:24:51;;;;;;;15.80;9.60;;;13.00;99.90;;;;;;5011925;28;20540;-65
2021/10/31 07:27:18;;;;;;;17.52;9.77;;;13.00;99.90;;;;;;5011486;28;20554;-66
2021/10/31 07:29:43;;;;;;;26.50;16.45;;;13.00;99.90;;;;;;5016090;28;20033;-65
2021/10/31 07:32:09;;;;;;;19.10;10.52;;;13.00;99.90;;;;;;5010088;28;20061;-65
2021/10/31 07:34:34;;;;;;;13.43;9.05;;;13.20;99.90;;;;;;5012052;28;20555;-65
2021/10/31 07:37:00;;;;;;;16.00;9.60;;;13.50;99.90;;;;;;5013527;28;20037;-65
2021/10/31 07:39:26;;;;;;;48.15;24.02;;;13.80;99.90;;;;;;5006935;28;20633;-65
2021/10/31 07:41:51;;;;;;;15.23;9.73;;;13.90;99.90;;;;;;5012164;28;20076;-64
2021/10/31 07:44:19;;;;;;;15.95;9.10;;;13.90;99.90;;;;;;5011333;28;20080;-65
2021/10/31 07:46:44;;;;;;;14.98;8.70;;;13.80;99.90;;;;;;5013773;28;20717;-65
2021/10/31 07:49:10;;;;;;;12.27;7.88;;;13.90;99.90;;;;;;5012570;28;20112;-66
2021/10/31 07:51:36;;;;;;;14.35;8.57;;;14.00;99.90;;;;;;5015569;28;20044;-66
2021/10/31 07:54:02;;;;;;;15.52;8.90;;;14.00;99.90;;;;;;5012521;28;20033;-65
2021/10/31 07:56:31;;;;;;;13.55;8.82;;;14.10;99.90;;;;;;5007558;28;20517;-66
2021/10/31 07:58:56;;;;;;;21.75;9.55;;;13.90;99.90;;;;;;5008214;28;20410;-65
2021/10/31 08:01:22;;;;;;;14.00;8.57;;;13.60;99.90;;;;;;5014703;28;20036;-65
2021/10/31 08:03:48;;;;;;;13.98;9.48;;;13.80;99.90;;;;;;5010976;28;20041;-62
2021/10/31 08:06:14;;;;;;;13.80;9.00;;;13.80;99.90;;;;;;5007522;28;20052;-62
2021/10/31 08:08:39;;;;;;;13.90;9.18;;;13.60;99.90;;;;;;5005357;28;20041;-61
2021/10/31 08:11:05;;;;;;;14.27;9.20;;;13.70;99.90;;;;;;5010751;28;20030;-64
2021/10/31 08:13:30;;;;;;;19.15;9.30;;;13.60;99.90;;;;;;5012190;28;20038;-62
2021/10/31 08:15:56;;;;;;;15.45;8.88;;;13.70;99.90;;;;;;5006813;28;20722;-63
2021/10/31 08:18:22;;;;;;;14.77;9.52;;;13.80;99.90;;;;;;5010437;28;20518;-62
2021/10/31 08:20:48;;;;;;;14.95;9.18;;;;;;;;;;5010237;28;20032;-65
2021/10/31 08:23:16;;;;;;;16.95;9.38;;;13.90;99.90;;;;;;5010656;28;20223;-65
2021/10/31 08:25:42;;;;;;;13.45;8.82;;;14.20;99.90;;;;;;5011478;28;20033;-64
2021/10/31 08:28:09;;;;;;;18.40;9.90;;;14.40;99.90;;;;;;5016932;28;20939;-64
2021/10/31 08:30:35;;;;;;;15.00;9.43;;;14.50;99.90;;;;;;5013903;28;20047;-64
2021/10/31 08:33:07;;;;;;;18.33;9.95;;;14.70;99.90;;;;;;5009280;28;20113;-65
2021/10/31 08:35:32;;;;;;;14.85;8.95;;;14.90;99.90;;;;;;5012702;28;20045;-65
2021/10/31 08:37:58;;;;;;;16.80;10.27;;;15.00;99.90;;;;;;5006496;28;20034;-64
2021/10/31 08:40:23;;;;;;;19.30;10.93;;;15.10;99.90;;;;;;5012149;28;20079;-65
2021/10/31 08:42:49;;;;;;;21.45;12.85;;;15.40;99.90;;;;;;5008337;28;20042;-65
2021/10/31 08:45:14;;;;;;;14.90;8.82;;;15.30;99.90;;;;;;5007175;28;20038;-66
2021/10/31 08:47:40;;;;;;;19.10;9.80;;;15.30;99.90;;;;;;5013345;28;20040;-66
2021/10/31 08:50:05;;;;;;;17.67;9.27;;;15.20;99.90;;;;;;5014110;28;20048;-63
2021/10/31 08:52:31;;;;;;;18.17;10.93;;;15.20;99.90;;;;;;5010407;28;20030;-65
2021/10/31 08:54:57;;;;;;;17.33;10.88;;;;;;;;;;5009721;28;20045;-65
2021/10/31 08:57:22;;;;;;;15.02;9.25;;;15.60;99.90;;;;;;5009553;28;20103;-63
2021/10/31 08:59:48;;;;;;;14.13;9.27;;;15.80;99.90;;;;;;5013787;28;20037;-64
2021/10/31 09:02:13;;;;;;;16.40;8.90;;;15.90;99.90;;;;;;5019536;28;20037;-64
2021/10/31 09:04:39;;;;;;;14.07;8.88;;;16.20;99.90;;;;;;5012673;28;20042;-62
2021/10/31 09:07:05;;;;;;;12.98;8.88;;;16.30;99.90;;;;;;5005293;28;20033;-67
2021/10/31 09:09:30;;;;;;;14.52;8.70;;;16.30;99.90;;;;;;5003553;28;20494;-66
2021/10/31 09:11:56;;;;;;;17.08;9.85;;;16.40;99.90;;;;;;5016453;28;20030;-70
2021/10/31 09:14:21;;;;;;;13.27;8.40;;;16.40;99.90;;;;;;5012759;28;20895;-68
2021/10/31 09:16:48;;;;;;;18.88;9.38;;;16.40;99.90;;;;;;5010098;28;20030;-68
2021/10/31 09:19:14;;;;;;;15.88;8.85;;;16.50;99.90;;;;;;5005110;28;20120;-67
2021/10/31 09:21:40;;;;;;;13.00;8.55;;;16.70;99.90;;;;;;5009213;28;20908;-69
2021/10/31 09:24:06;;;;;;;12.75;8.93;;;16.90;99.90;;;;;;5006622;28;20071;-68
2021/10/31 09:26:32;;;;;;;17.88;10.48;;;16.70;99.90;;;;;;5006673;28;20683;-61
2021/10/31 09:28:57;;;;;;;21.45;9.57;;;16.70;99.90;;;;;;5005094;28;20025;-62
2021/10/31 09:31:23;;;;;;;16.20;10.63;;;16.70;99.90;;;;;;5003101;28;20513;-61
2021/10/31 09:33:48;;;;;;;14.30;8.52;;;16.60;99.90;;;;;;5007157;28;20042;-61
2021/10/31 09:36:14;;;;;;;16.23;9.15;;;17.20;99.90;;;;;;5011042;28;20059;-61
2021/10/31 09:38:39;;;;;;;14.18;9.00;;;17.00;99.90;;;;;;5006457;28;20058;-61
2021/10/31 09:41:05;;;;;;;13.15;8.52;;;17.20;99.90;;;;;;5008826;28;20108;-61
2021/10/31 09:43:37;;;;;;;13.75;8.35;;;17.30;99.90;;;;;;5009026;28;20034;-62
2021/10/31 09:46:04;;;;;;;14.02;9.25;;;17.60;99.90;;;;;;5012451;28;20045;-61
2021/10/31 09:48:29;;;;;;;12.57;8.98;;;17.70;99.90;;;;;;4998983;28;20070;-71
2021/10/31 09:50:54;;;;;;;16.00;8.85;;;17.70;99.90;;;;;;5008264;28;20037;-68
2021/10/31 09:53:20;;;;;;;17.75;10.73;;;17.70;99.90;;;;;;5010779;28;20117;-70
2021/10/31 09:55:45;;;;;;;15.20;9.30;;;17.50;99.90;;;;;;5011925;28;20521;-71
2021/10/31 09:58:26;;;;;;;12.43;8.70;;;17.20;99.90;;;;;;4985138;28;20915;-73
2021/10/31 10:00:52;;;;;;;15.05;9.85;;;17.30;99.90;;;;;;5007710;28;20036;-71
2021/10/31 10:03:36;;;;;;;14.15;8.82;;;17.50;99.90;;;;;;5009994;28;20398;-73
2021/10/31 10:06:01;;;;;;;14.88;8.95;;;17.50;99.90;;;;;;5002123;28;20092;-71
2021/10/31 10:08:26;;;;;;;12.52;8.82;;;17.50;99.90;;;;;;5009191;28;20666;-71
2021/10/31 10:10:52;;;;;;;15.15;9.02;;;17.50;99.90;;;;;;5006609;28;20034;-72
2021/10/31 10:13:18;;;;;;;14.57;8.55;;;17.50;99.90;;;;;;5010113;28;20057;-74
2021/10/31 10:15:43;;;;;;;15.15;9.25;;;17.60;99.90;;;;;;5014558;28;20038;-71
2021/10/31 10:18:09;;;;;;;15.77;9.27;;;17.70;99.90;;;;;;5004870;28;20088;-72
2021/10/31 10:20:34;;;;;;;15.27;9.75;;;17.90;99.90;;;;;;5005560;28;20456;-72
2021/10/31 10:23:00;;;;;;;13.73;8.98;;;17.80;99.90;;;;;;5006594;28;20029;-72
2021/10/31 10:25:25;;;;;;;13.13;8.60;;;18.10;99.90;;;;;;5003205;28;20562;-62
2021/10/31 10:27:51;;;;;;;14.40;9.02;;;18.40;99.90;;;;;;5007383;28;20049;-61
2021/10/31 10:30:17;;;;;;;20.20;10.10;;;18.60;99.90;;;;;;5007293;28;20636;-61
2021/10/31 10:32:42;;;;;;;19.05;11.57;;;18.50;99.90;;;;;;5012939;28;20048;-61
2021/10/31 10:35:08;;;;;;;19.92;11.65;;;18.40;99.90;;;;;;5009045;28;20037;-61
2021/10/31 10:37:33;;;;;;;12.88;8.95;;;17.90;99.90;;;;;;5006806;28;20079;-61
2021/10/31 10:39:58;;;;;;;14.32;8.57;;;17.90;99.90;;;;;;5009501;28;20029;-61
2021/10/31 10:42:24;;;;;;;13.27;8.93;;;17.80;99.90;;;;;;5000590;28;20125;-61
2021/10/31 10:44:50;;;;;;;14.57;8.95;;;17.90;99.90;;;;;;5000363;28;20045;-61
2021/10/31 10:47:20;;;;;;;13.65;9.00;;;18.00;99.90;;;;;;5009070;28;20069;-61
2021/10/31 10:49:46;;;;;;;12.43;8.35;;;18.10;99.90;;;;;;5009478;28;20549;-61
2021/10/31 10:52:19;;;;;;;17.08;8.75;;;18.00;99.90;;;;;;5006809;28;20034;-61
2021/10/31 10:54:46;;;;;;;14.27;9.55;;;18.20;99.90;;;;;;5013699;28;20034;-61
2021/10/31 10:57:11;;;;;;;16.00;8.43;;;18.20;99.90;;;;;;5015814;28;20140;-65
2021/10/31 10:59:37;;;;;;;16.63;9.77;;;18.00;99.90;;;;;;5018390;28;20132;-63
2021/10/31 11:02:02;;;;;;;23.48;12.40;;;17.90;99.90;;;;;;5016793;28;20441;-61
2021/10/31 11:04:27;;;;;;;15.32;10.07;;;17.80;99.90;;;;;;5012303;28;20129;-62
2021/10/31 11:06:53;;;;;;;12.88;9.07;;;17.90;99.90;;;;;;5010932;28;20041;-62
2021/10/31 11:09:18;;;;;;;12.00;8.32;;;18.00;99.90;;;;;;5007529;28;20045;-62
2021/10/31 11:11:44;;;;;;;13.65;8.77;;;18.10;99.90;;;;;;5009055;28;20048;-61
2021/10/31 11:14:09;;;;;;;11.27;8.18;;;18.10;99.90;;;;;;5013285;28;20120;-62
2021/10/31 11:16:35;;;;;;;14.35;9.23;;;18.30;99.90;;;;;;5006707;28;20561;-63
2021/10/31 11:19:01;;;;;;;15.48;8.77;;;18.20;99.90;;;;;;5017374;28;20029;-61
2021/10/31 11:21:26;;;;;;;21.90;10.75;;;18.10;99.90;;;;;;5013930;28;20231;-62
2021/10/31 11:23:52;;;;;;;15.30;9.18;;;18.30;99.90;;;;;;5011680;28;20494;-62
2021/10/31 11:26:18;;;;;;;14.43;8.50;;;18.30;99.90;;;;;;5011300;28;20026;-61
2021/10/31 11:28:43;;;;;;;12.68;8.40;;;18.20;99.90;;;;;;5004495;28;20738;-62
2021/10/31 11:31:08;;;;;;;14.93;8.85;;;18.20;99.90;;;;;;5010544;28;20048;-62
2021/10/31 11:33:34;;;;;;;14.18;8.38;;;18.30;99.90;;;;;;5014074;28;20120;-62
2021/10/31 11:36:00;;;;;;;12.43;8.02;;;18.10;99.90;;;;;;5007071;28;20049;-62
2021/10/31 11:38:25;;;;;;;14.30;8.57;;;18.10;99.90;;;;;;5017433;28;20044;-62
2021/10/31 11:40:51;;;;;;;12.48;8.23;;;18.00;99.90;;;;;;5007897;28;20026;-62
2021/10/31 11:43:16;;;;;;;9.60;7.05;;;18.10;99.90;;;;;;5013925;28;20029;-61
2021/10/31 11:45:42;;;;;;;13.32;7.43;;;18.20;99.90;;;;;;5014873;28;20041;-62
2021/10/31 11:48:08;;;;;;;11.70;7.50;;;18.10;99.90;;;;;;5006154;28;20432;-61
2021/10/31 11:50:34;;;;;;;16.70;7.68;;;18.20;99.90;;;;;;5006253;28;20162;-61
2021/10/31 11:52:59;;;;;;;11.80;7.05;;;18.20;99.90;;;;;;5012428;28;20045;-61
2021/10/31 11:55:27;;;;;;;12.82;7.80;;;18.20;99.90;;;;;;5003507;28;20081;-61
2021/10/31 11:57:53;;;;;;;14.18;8.38;;;18.30;99.90;;;;;;5002986;28;20037;-62
2021/10/31 12:00:20;;;;;;;11.98;7.43;;;18.60;99.90;;;;;;5007931;28;20108;-61
2021/10/31 12:02:47;;;;;;;16.13;8.82;;;18.70;99.90;;;;;;5008520;28;20040;-62
2021/10/31 12:05:19;;;;;;;12.90;8.27;;;18.90;99.90;;;;;;5001310;28;20034;-61
2021/10/31 12:07:52;;;;;;;12.55;7.85;;;18.40;99.90;;;;;;5014626;28;20037;-62
2021/10/31 12:10:17;;;;;;;12.20;7.28;;;18.60;99.90;;;;;;5009913;28;20041;-61
2021/10/31 12:12:43;;;;;;;11.55;7.07;;;18.70;99.90;;;;;;5015538;28;20837;-62
2021/10/31 12:15:08;;;;;;;12.25;7.63;;;18.90;99.90;;;;;;5005176;28;20034;-62
2021/10/31 12:17:34;;;;;;;11.63;7.63;;;18.80;99.90;;;;;;5006885;28;20038;-61
2021/10/31 12:19:59;;;;;;;11.73;8.50;;;18.80;99.90;;;;;;5008282;28;20726;-61
2021/10/31 12:22:25;;;;;;;13.20;8.30;;;19.10;99.90;;;;;;5010048;28;20032;-61